Time;durP1;ratioP1;P1;durP2;ratioP2;P2;SDS_P1;SDS_P2;PMS_P1;PMS_P2;Temp;Humidity;BMP_temperature;BMP_pressure;BME280_temperature;BME280_humidity;BME280_pressure;Samples;Min_cycle;Max_cycle;Signal;HPM_P1;HPM_P2
2024/04/01 00:00:38;;;;;;;4.93;1.70;;;;;;;12.83;100.00;98288.91;5014369;28;20124;-76
2024/04/01 00:03:04;;;;;;;4.50;1.42;;;;;;;12.89;100.00;98306.97;5039155;28;20076;-77
2024/04/01 00:05:31;;;;;;;2.20;1.00;;;;;;;12.75;100.00;98280.78;5044793;28;20802;-76
2024/04/01 00:07:57;;;;;;;4.18;1.40;;;;;;;12.76;100.00;98271.84;5061520;28;20076;-75
2024/04/01 00:10:26;;;;;;;3.22;1.20;;;;;;;12.92;100.00;98287.22;5040060;28;20168;-76
2024/04/01 00:12:53;;;;;;;3.30;0.80;;;;;;;12.96;100.00;98278.03;5038981;28;20091;-76
2024/04/01 00:15:22;;;;;;;1.77;0.90;;;;;;;12.97;100.00;98274.38;5041986;28;20136;-76
2024/04/01 00:17:49;;;;;;;2.75;1.00;;;;;;;12.94;100.00;98283.47;5048762;28;20566;-76
2024/04/01 00:20:17;;;;;;;4.03;1.33;;;;;;;12.95;100.00;98277.19;5040771;28;20069;-78
2024/04/01 00:22:44;;;;;;;1.83;0.83;;;;;;;12.98;100.00;98271.59;5049461;28;20159;-75
2024/04/01 00:25:13;;;;;;;3.65;0.80;;;;;;;13.01;100.00;98275.78;5032130;28;20555;-76
2024/04/01 00:27:39;;;;;;;5.28;1.05;;;;;;;13.05;100.00;98271.06;5025404;28;20065;-75
2024/04/01 00:30:07;;;;;;;2.42;1.10;;;;;;;13.00;100.00;98256.34;5029934;28;20044;-75
2024/04/01 00:32:37;;;;;;;2.22;1.00;;;;;;;12.97;100.00;98253.97;5036847;28;20077;-77
2024/04/01 00:35:04;;;;;;;3.17;1.42;;;;;;;12.97;100.00;98261.94;5032949;28;20506;-76
2024/04/01 00:37:30;;;;;;;2.53;1.15;;;;;;;12.94;100.00;98277.31;5044182;28;20084;-76
2024/04/01 00:39:57;;;;;;;2.70;1.00;;;;;;;12.68;100.00;98221.25;5030757;28;20041;-76
2024/04/01 00:42:23;;;;;;;1.55;0.70;;;;;;;12.94;100.00;98251.59;5029977;28;20072;-76
2024/04/01 00:44:50;;;;;;;2.78;0.80;;;;;;;12.93;100.00;98249.91;5047221;28;20044;-75
2024/04/01 00:47:17;;;;;;;1.88;0.50;;;;;;;12.92;100.00;98237.59;5061739;28;20072;-75
2024/04/01 00:49:45;;;;;;;2.35;0.50;;;;;;;12.89;100.00;98224.63;5034606;28;20076;-76
2024/04/01 00:52:13;;;;;;;3.50;0.75;;;;;;;12.80;100.00;98204.19;5041834;28;20069;-76
2024/04/01 00:54:40;;;;;;;2.80;0.68;;;;;;;12.68;100.00;98207.97;5036627;28;20044;-76
2024/04/01 00:57:07;;;;;;;2.78;0.80;;;;;;;12.56;100.00;98212.56;5057397;28;20059;-76
2024/04/01 00:59:36;;;;;;;1.83;0.70;;;;;;;11.51;100.00;98043.34;5034733;28;20618;-76
2024/04/01 01:02:02;;;;;;;2.78;1.23;;;;;;;12.47;100.00;98218.69;5046005;28;20064;-75
2024/04/01 01:04:31;;;;;;;2.33;0.82;;;;;;;12.11;100.00;98159.13;5039334;28;20128;-76
2024/04/01 01:06:59;;;;;;;2.38;0.93;;;;;;;12.30;100.00;98201.59;5025757;28;20119;-75
2024/04/01 01:09:27;;;;;;;1.67;0.95;;;;;;;12.37;100.00;98222.31;5048215;28;20071;-76
2024/04/01 01:11:52;;;;;;;1.50;0.70;;;;;;;12.32;100.00;98224.50;5027970;28;20073;-75
2024/04/01 01:14:19;;;;;;;3.55;0.80;;;;;;;12.19;100.00;98201.72;5028370;28;20052;-75
2024/04/01 01:16:46;;;;;;;1.65;0.70;;;;;;;12.32;100.00;98219.22;5055385;28;20071;-76
2024/04/01 01:19:13;;;;;;;2.03;0.80;;;;;;;12.04;100.00;98173.06;5017358;28;20043;-75
2024/04/01 01:21:39;;;;;;;2.42;0.93;;;;;;;12.24;100.00;98196.00;5043305;28;20526;-77
2024/04/01 01:24:08;;;;;;;2.17;0.88;;;;;;;12.37;100.00;98209.88;5031929;28;20069;-74
2024/04/01 01:26:34;;;;;;;1.85;0.73;;;;;;;12.39;100.00;98202.63;5048779;28;20068;-75
2024/04/01 01:29:02;;;;;;;1.98;0.82;;;;;;;12.27;100.00;98167.41;5040020;28;20392;-75
2024/04/01 01:31:28;;;;;;;1.05;0.70;;;;;;;12.46;100.00;98181.66;5021686;28;20131;-75
2024/04/01 01:33:57;;;;;;;1.60;0.60;;;;;;;12.42;100.00;98178.47;5032166;28;22060;-75
2024/04/01 01:36:22;;;;;;;1.95;0.63;;;;;;;12.40;100.00;98180.41;5017870;28;20087;-76
2024/04/01 01:38:49;;;;;;;1.67;0.80;;;;;;;12.29;100.00;98154.81;5043326;28;20080;-75
2024/04/01 01:41:17;;;;;;;3.60;0.88;;;;;;;12.38;100.00;98173.56;5038307;28;20582;-76
2024/04/01 01:43:45;;;;;;;2.85;0.88;;;;;;;12.34;100.00;98158.88;5036849;28;20089;-76
2024/04/01 01:46:12;;;;;;;1.10;0.60;;;;;;;12.29;100.00;98168.06;5041659;28;20143;-77
2024/04/01 01:48:42;;;;;;;4.57;0.90;;;;;;;12.23;100.00;98162.50;5045145;28;20068;-75
2024/04/01 01:51:08;;;;;;;4.23;0.90;;;;;;;12.19;100.00;98155.78;5042168;28;20075;-74
2024/04/01 01:53:35;;;;;;;3.95;0.77;;;;;;;12.15;100.00;98146.41;5035970;28;20480;-75
2024/04/01 01:56:03;;;;;;;2.40;0.73;;;;;;;12.13;100.00;98156.31;5030277;28;20073;-75
2024/04/01 01:58:31;;;;;;;2.13;0.85;;;;;;;12.00;100.00;98155.72;5061410;28;20068;-75
2024/04/01 02:00:57;;;;;;;1.38;0.75;;;;;;;12.16;100.00;98187.88;5039587;28;20075;-77
2024/04/01 02:03:23;;;;;;;2.78;0.82;;;;;;;12.17;100.00;98181.59;5046787;28;20411;-77
2024/04/01 02:05:50;;;;;;;1.63;0.50;;;;;;;12.12;100.00;98183.84;5061378;28;20068;-76
2024/04/01 02:08:20;;;;;;;1.98;0.52;;;;;;;12.03;100.00;98193.44;5045968;28;20091;-74
2024/04/01 02:10:56;;;;;;;3.78;0.55;;;;;;;11.99;100.00;98194.66;5073917;28;20041;-76
2024/04/01 02:13:25;;;;;;;2.28;0.47;;;;;;;11.89;100.00;98192.00;5035669;28;20045;-75
2024/04/01 02:16:06;;;;;;;3.28;0.55;;;;;;;11.68;100.00;98172.59;5028896;28;20069;-76
2024/04/01 02:18:32;;;;;;;;;;;;;;;11.57;100.00;98186.78;5029245;28;20420;-75
2024/04/01 02:20:59;;;;;;;2.72;0.60;;;;;;;11.26;100.00;98153.28;5057462;28;19960;-73
2024/04/01 02:23:29;;;;;;;3.05;0.82;;;;;;;11.34;100.00;98165.88;5029396;28;20118;-73
2024/04/01 02:25:59;;;;;;;2.10;1.38;;;;;;;10.89;100.00;98114.03;5066155;28;20068;-74
2024/04/01 02:28:26;;;;;;;1.42;0.50;;;;;;;11.21;100.00;98180.16;5043886;28;20087;-74
2024/04/01 02:30:54;;;;;;;2.17;0.60;;;;;;;11.14;100.00;98167.59;5029293;28;20132;-74
2024/04/01 02:33:20;;;;;;;2.55;0.70;;;;;;;11.03;100.00;98178.22;5046497;28;20087;-72
2024/04/01 02:35:47;;;;;;;1.85;0.80;;;;;;;10.94;100.00;98171.06;5033628;28;20044;-73
2024/04/01 02:38:14;;;;;;;1.10;0.65;;;;;;;10.88;100.00;98128.22;5026498;28;20156;-72
2024/04/01 02:40:41;;;;;;;1.30;0.65;;;;;;;10.85;100.00;98080.84;5053270;28;20103;-73
2024/04/01 02:43:08;;;;;;;2.33;0.90;;;;;;;10.77;100.00;98067.41;5028523;28;20131;-73
2024/04/01 02:45:34;;;;;;;3.00;0.93;;;;;;;10.69;100.00;98080.47;5030647;28;20824;-72
2024/04/01 02:48:03;;;;;;;2.40;0.73;;;;;;;10.71;100.00;98093.53;5009803;28;20044;-72
2024/04/01 02:50:29;;;;;;;1.73;1.00;;;;;;;10.64;100.00;98085.31;5024929;28;20060;-72
2024/04/01 02:52:57;;;;;;;2.50;1.00;;;;;;;10.60;100.00;98073.28;5026601;28;20076;-72
2024/04/01 02:55:25;;;;;;;3.80;1.00;;;;;;;10.26;100.00;98022.34;5018859;28;20065;-72
2024/04/01 02:57:54;;;;;;;3.88;0.90;;;;;;;10.53;100.00;98065.03;5055658;28;20065;-72
2024/04/01 03:00:20;;;;;;;4.15;1.20;;;;;;;10.34;100.00;98024.38;5076288;28;20041;-72
2024/04/01 03:02:48;;;;;;;3.05;1.35;;;;;;;10.44;100.00;98041.97;5060020;28;20036;-72
2024/04/01 03:05:18;;;;;;;2.03;1.42;;;;;;;10.50;100.00;98035.34;5029345;28;20045;-72
2024/04/01 03:07:46;;;;;;;2.35;1.60;;;;;;;10.49;100.00;98037.16;5031897;28;20150;-72
2024/04/01 03:10:12;;;;;;;7.07;2.03;;;;;;;10.48;100.00;98058.44;5032529;28;20124;-71
2024/04/01 03:12:39;;;;;;;2.13;1.65;;;;;;;10.45;100.00;98085.16;5007141;28;20148;-71
2024/04/01 03:15:08;;;;;;;3.72;1.60;;;;;;;10.45;100.00;98112.44;5037055;28;20076;-71
2024/04/01 03:17:35;;;;;;;1.80;1.40;;;;;;;10.49;100.00;98110.38;5060900;28;20129;-72
2024/04/01 03:20:02;;;;;;;2.58;1.65;;;;;;;10.33;100.00;98072.94;5032199;28;20059;-72
2024/04/01 03:22:32;;;;;;;3.60;1.70;;;;;;;10.56;100.00;98106.25;5031616;28;20098;-71
2024/04/01 03:24:57;;;;;;;2.95;1.60;;;;;;;10.35;100.00;98065.72;5037163;28;20115;-71
2024/04/01 03:27:24;;;;;;;5.28;1.77;;;;;;;10.63;100.00;98091.56;5028335;28;20569;-72
2024/04/01 03:29:52;;;;;;;2.95;1.95;;;;;;;10.60;100.00;98086.50;5046833;28;20060;-72
2024/04/01 03:32:19;;;;;;;3.15;1.73;;;;;;;10.51;100.00;98093.44;5043482;28;20139;-72
2024/04/01 03:34:50;;;;;;;4.32;2.10;;;;;;;10.51;100.00;98096.06;5015507;28;20120;-73
2024/04/01 03:37:16;;;;;;;2.75;1.90;;;;;;;10.49;100.00;98084.78;5048439;28;20075;-71
2024/04/01 03:39:47;;;;;;;5.70;1.95;;;;;;;10.39;100.00;98056.56;5050734;28;20081;-72
2024/04/01 03:42:14;;;;;;;4.93;2.58;;;;;;;10.48;100.00;98053.16;5044511;28;20072;-72
2024/04/01 03:44:42;;;;;;;4.78;1.90;;;;;;;10.28;100.00;98006.34;5034737;28;20530;-73
2024/04/01 03:47:10;;;;;;;5.93;2.22;;;;;;;10.44;100.00;98014.69;5034855;28;20068;-73
2024/04/01 03:49:38;;;;;;;7.05;2.33;;;;;;;10.01;100.00;97930.13;5048865;28;20068;-72
2024/04/01 03:52:05;;;;;;;5.68;2.20;;;;;;;10.34;100.00;97987.31;5027539;28;20989;-72
2024/04/01 03:54:33;;;;;;;6.40;2.90;;;;;;;10.32;100.00;97997.19;5047247;28;20237;-72
2024/04/01 03:57:02;;;;;;;5.75;3.03;;;;;;;10.31;100.00;97995.50;5045357;28;20083;-72
2024/04/01 03:59:29;;;;;;;10.20;3.20;;;;;;;10.26;100.00;97981.81;5042598;28;20045;-73
2024/04/01 04:01:55;;;;;;;9.05;3.30;;;;;;;10.29;100.00;97978.94;5042381;28;20067;-72
2024/04/01 04:04:22;;;;;;;10.45;3.50;;;;;;;10.30;100.00;97988.53;5061308;28;20124;-73
2024/04/01 04:06:49;;;;;;;8.27;3.08;;;;;;;10.30;100.00;97981.44;5031831;28;20544;-72
2024/04/01 04:09:17;;;;;;;13.82;3.58;;;;;;;10.32;100.00;97995.38;5031450;28;20551;-72
2024/04/01 04:11:49;;;;;;;16.88;3.55;;;;;;;10.32;100.00;98007.78;5032302;28;20160;-72
2024/04/01 04:14:20;;;;;;;11.77;3.20;;;;;;;10.30;100.00;98017.63;5030398;28;20082;-73
2024/04/01 04:16:46;;;;;;;;;;;;;;;10.32;100.00;98043.00;5048315;28;20089;-72
2024/04/01 04:19:14;;;;;;;8.63;3.10;;;;;;;10.30;100.00;98044.09;5061108;28;20040;-72
2024/04/01 04:21:42;;;;;;;9.68;3.63;;;;;;;10.36;100.00;98038.31;5032463;28;20044;-72
2024/04/01 04:24:09;;;;;;;11.95;3.28;;;;;;;10.40;100.00;98029.13;5029565;28;20480;-72
2024/04/01 04:26:35;;;;;;;9.45;3.67;;;;;;;10.39;100.00;98027.47;5043211;28;20040;-72
2024/04/01 04:29:02;;;;;;;6.18;3.03;;;;;;;10.39;100.00;98036.22;5041797;28;20145;-72
2024/04/01 04:31:30;;;;;;;6.22;3.10;;;;;;;10.39;100.00;98046.00;5006139;28;20076;-72
2024/04/01 04:33:58;;;;;;;7.75;2.67;;;;;;;10.32;100.00;98029.78;5045971;28;20099;-72
2024/04/01 04:36:24;;;;;;;7.57;2.70;;;;;;;10.41;100.00;98041.38;5030166;28;20076;-73
2024/04/01 04:38:53;;;;;;;6.18;2.45;;;;;;;10.41;100.00;98033.44;5032890;28;20407;-72
2024/04/01 04:41:22;;;;;;;8.27;2.70;;;;;;;10.33;100.00;98022.69;5044759;28;20123;-72
2024/04/01 04:43:50;;;;;;;9.18;2.65;;;;;;;10.41;100.00;98044.03;5045390;28;20075;-73
2024/04/01 04:46:16;;;;;;;8.50;2.50;;;;;;;10.44;100.00;98046.41;5049364;28;20076;-72
2024/04/01 04:48:45;;;;;;;3.85;2.10;;;;;;;10.45;100.00;98045.47;5043515;28;20037;-73
2024/04/01 04:51:11;;;;;;;8.53;2.27;;;;;;;10.36;100.00;98049.72;5043016;28;20124;-76
2024/04/01 04:53:39;;;;;;;4.13;1.92;;;;;;;10.20;100.00;98014.94;5013666;28;21326;-72
2024/04/01 04:56:05;;;;;;;3.22;2.10;;;;;;;10.43;100.00;98057.97;5045930;28;20133;-73
2024/04/01 04:58:32;;;;;;;5.25;1.80;;;;;;;10.41;100.00;98047.50;5043706;28;20068;-72
2024/04/01 05:01:05;;;;;;;7.03;2.10;;;;;;;10.02;100.00;98000.56;5029874;28;20559;-73
2024/04/01 05:03:31;;;;;;;4.05;2.10;;;;;;;10.42;100.00;98075.66;5008309;28;20053;-73
2024/04/01 05:05:59;;;;;;;5.35;1.50;;;;;;;10.46;100.00;98065.66;5021617;28;20067;-72
2024/04/01 05:08:24;;;;;;;5.05;1.90;;;;;;;10.47;100.00;98062.88;5027027;28;20526;-72
2024/04/01 05:10:52;;;;;;;3.72;1.30;;;;;;;10.37;100.00;98024.13;5061109;28;20047;-73
2024/04/01 05:13:18;;;;;;;2.97;1.10;;;;;;;10.39;100.00;98032.75;5041008;28;20131;-73
2024/04/01 05:15:46;;;;;;;5.20;1.30;;;;;;;10.43;100.00;98044.75;5032535;28;20066;-72
2024/04/01 05:18:12;;;;;;;3.08;1.02;;;;;;;10.36;100.00;98051.53;5026992;28;20072;-73
2024/04/01 05:20:39;;;;;;;2.28;0.93;;;;;;;10.31;100.00;98062.47;5032267;28;20044;-73
2024/04/01 05:23:06;;;;;;;2.97;0.90;;;;;;;10.21;100.00;98048.34;5041530;28;20573;-72
2024/04/01 05:25:33;;;;;;;2.30;0.85;;;;;;;10.26;100.00;98063.81;5032120;28;20087;-73
2024/04/01 05:28:00;;;;;;;3.10;1.13;;;;;;;10.26;100.00;98066.47;5036694;28;20073;-73
2024/04/01 05:30:29;;;;;;;3.10;0.98;;;;;;;10.26;100.00;98069.94;5011840;28;20091;-72
2024/04/01 05:32:56;;;;;;;4.70;1.27;;;;;;;10.27;100.00;98078.72;5027722;28;20154;-73
2024/04/01 05:35:24;;;;;;;7.07;1.58;;;;;;;10.27;100.00;98081.38;5023871;28;20040;-73
2024/04/01 05:37:50;;;;;;;4.70;1.70;;;;;;;10.27;100.00;98079.56;5031527;28;20159;-72
2024/04/01 05:40:18;;;;;;;4.07;1.73;;;;;;;10.24;100.00;98074.53;5028099;28;20135;-72
2024/04/01 05:42:44;;;;;;;4.53;1.67;;;;;;;10.29;100.00;98097.97;5045564;28;20172;-73
2024/04/01 05:45:13;;;;;;;7.57;2.05;;;;;;;10.32;100.00;98098.56;5014089;28;20649;-74
2024/04/01 05:47:39;;;;;;;4.90;1.85;;;;;;;10.39;100.00;98107.66;5026962;28;20072;-74
2024/04/01 05:50:07;;;;;;;8.23;2.33;;;;;;;10.47;100.00;98129.03;5043313;28;20052;-74
2024/04/01 05:52:33;;;;;;;4.00;2.40;;;;;;;10.49;100.00;98129.75;5028472;28;20135;-74
2024/04/01 05:55:02;;;;;;;4.10;2.70;;;;;;;10.51;100.00;98135.75;5043236;28;20064;-74
2024/04/01 05:57:29;;;;;;;7.22;3.08;;;;;;;10.45;100.00;98124.84;5038717;28;20068;-73
2024/04/01 05:59:58;;;;;;;5.40;2.80;;;;;;;10.60;100.00;98141.25;5046482;28;20661;-74
2024/04/01 06:02:24;;;;;;;8.80;3.13;;;;;;;10.58;100.00;98145.81;5039097;28;20068;-74
2024/04/01 06:04:51;;;;;;;8.98;3.33;;;;;;;10.58;100.00;98144.03;5045995;28;20041;-74
2024/04/01 06:07:19;;;;;;;5.88;2.90;;;;;;;10.62;100.00;98145.47;5032093;28;20094;-74
2024/04/01 06:09:46;;;;;;;6.22;2.65;;;;;;;10.65;100.00;98155.78;5044696;28;20485;-73
2024/04/01 06:12:11;;;;;;;5.50;2.80;;;;;;;10.65;100.00;98144.38;5067748;28;20133;-74
2024/04/01 06:14:40;;;;;;;6.45;2.88;;;;;;;10.69;100.00;98145.81;5045845;28;20059;-74
2024/04/01 06:17:06;;;;;;;6.53;3.08;;;;;;;10.71;100.00;98157.91;5062355;28;20132;-73
2024/04/01 06:19:34;;;;;;;7.05;3.00;;;;;;;10.73;100.00;98149.84;5041967;28;20045;-74
2024/04/01 06:22:03;;;;;;;4.75;2.80;;;;;;;10.71;100.00;98136.75;5050978;28;20056;-75
2024/04/01 06:24:29;;;;;;;6.60;3.75;;;;;;;10.73;100.00;98142.75;5023153;28;20079;-75
2024/04/01 06:26:55;;;;;;;8.18;2.80;;;;;;;10.73;100.00;98137.44;5059782;28;20507;-74
2024/04/01 06:29:22;;;;;;;3.97;2.25;;;;;;;10.63;100.00;98141.84;5043093;28;20044;-73
2024/04/01 06:31:50;;;;;;;9.02;2.10;;;;;;;10.46;100.00;98132.66;5044495;28;20468;-74
2024/04/01 06:34:17;;;;;;;5.22;2.40;;;;;;;9.99;100.00;98041.31;5042187;28;20407;-72
2024/04/01 06:36:45;;;;;;;3.60;2.60;;;;;;;10.39;100.00;98117.41;5042777;28;20037;-73
2024/04/01 06:39:13;;;;;;;4.57;2.60;;;;;;;10.39;100.00;98135.94;5026006;28;20037;-74
2024/04/01 06:41:39;;;;;;;4.90;2.75;;;;;;;10.40;100.00;98135.78;5054634;28;20748;-74
2024/04/01 06:44:06;;;;;;;5.15;2.97;;;;;;;10.41;100.00;98142.75;5020102;28;20143;-73
2024/04/01 06:46:32;;;;;;;4.50;2.75;;;;;;;10.37;100.00;98135.22;5042025;28;20133;-73
2024/04/01 06:49:02;;;;;;;5.80;2.80;;;;;;;10.31;100.00;98141.00;5009940;28;20057;-74
2024/04/01 06:51:28;;;;;;;5.93;3.17;;;;;;;10.30;100.00;98150.75;5037639;28;20069;-74
2024/04/01 06:53:56;;;;;;;6.88;3.67;;;;;;;10.29;100.00;98154.34;5057910;28;20644;-72
2024/04/01 06:56:22;;;;;;;8.52;3.78;;;;;;;10.30;100.00;98163.97;5026866;28;20037;-73
2024/04/01 06:58:50;;;;;;;5.60;3.50;;;;;;;10.35;100.00;98180.31;5011385;28;20079;-72
2024/04/01 07:01:16;;;;;;;7.80;3.72;;;;;;;10.38;100.00;98184.53;5025673;28;20041;-74
2024/04/01 07:03:43;;;;;;;6.20;3.65;;;;;;;10.37;100.00;98188.13;5023333;28;20089;-73
2024/04/01 07:06:11;;;;;;;5.38;3.22;;;;;;;10.32;100.00;98198.25;5045777;28;20128;-74
2024/04/01 07:08:37;;;;;;;4.75;3.63;;;;;;;10.32;100.00;98196.44;5031538;28;20061;-72
2024/04/01 07:11:03;;;;;;;7.55;3.63;;;;;;;10.34;100.00;98198.97;5046840;28;20075;-73
2024/04/01 07:13:31;;;;;;;10.45;4.13;;;;;;;10.36;100.00;98202.31;5041573;28;20934;-74
2024/04/01 07:15:58;;;;;;;9.32;4.40;;;;;;;10.36;100.00;98197.03;5033566;28;20048;-72
2024/04/01 07:18:28;;;;;;;7.07;4.30;;;;;;;10.29;100.00;98196.66;5052297;28;20052;-72
2024/04/01 07:20:57;;;;;;;6.95;4.68;;;;;;;10.43;100.00;98209.63;5045325;28;20060;-73
2024/04/01 07:23:25;;;;;;;8.07;5.22;;;;;;;10.45;100.00;98212.16;5006885;28;20137;-73
2024/04/01 07:25:51;;;;;;;8.73;5.68;;;;;;;10.48;100.00;98219.84;5043252;28;20068;-73
2024/04/01 07:28:17;;;;;;;7.65;5.50;;;;;;;10.48;100.00;98227.78;5043406;28;20068;-73
2024/04/01 07:30:43;;;;;;;7.57;5.57;;;;;;;10.46;100.00;98227.91;5059044;28;20111;-74
2024/04/01 07:33:10;;;;;;;7.05;4.60;;;;;;;10.39;100.00;98232.00;5025255;28;20071;-73
2024/04/01 07:35:36;;;;;;;6.55;4.35;;;;;;;10.45;100.00;98234.16;5061565;28;20100;-72
2024/04/01 07:38:03;;;;;;;6.57;4.20;;;;;;;10.49;100.00;98240.91;5030128;28;20503;-73
2024/04/01 07:40:30;;;;;;;5.97;3.80;;;;;;;10.57;100.00;98236.75;5057290;28;20034;-73
2024/04/01 07:42:56;;;;;;;5.40;3.10;;;;;;;10.58;100.00;98238.44;5041112;28;20083;-73
2024/04/01 07:45:23;;;;;;;3.80;2.97;;;;;;;10.49;100.00;98235.59;5059232;28;20096;-73
2024/04/01 07:47:49;;;;;;;4.28;2.80;;;;;;;10.43;100.00;98229.94;5022180;28;20127;-72
2024/04/01 07:50:15;;;;;;;4.07;2.90;;;;;;;10.43;100.00;98241.38;5030767;28;20049;-72
2024/04/01 07:52:42;;;;;;;2.97;2.33;;;;;;;10.40;100.00;98230.19;5026579;28;20065;-72
2024/04/01 07:55:08;;;;;;;3.05;2.20;;;;;;;10.48;100.00;98239.22;5056984;28;20511;-72
2024/04/01 07:57:36;;;;;;;4.40;2.55;;;;;;;10.54;100.00;98248.47;5059386;28;20045;-72
2024/04/01 08:00:03;;;;;;;3.25;2.03;;;;;;;10.27;100.00;98216.28;5032293;28;20513;-72
2024/04/01 08:02:38;;;;;;;2.35;1.98;;;;;;;10.40;100.00;98249.56;5043131;28;20033;-72
2024/04/01 08:05:05;;;;;;;2.33;2.00;;;;;;;10.20;100.00;98226.53;5012170;28;20060;-73
2024/04/01 08:07:32;;;;;;;3.10;2.40;;;;;;;10.34;100.00;98251.88;5038439;28;20057;-73
2024/04/01 08:09:59;;;;;;;3.90;2.00;;;;;;;10.35;100.00;98253.56;5046493;28;20072;-72
2024/04/01 08:12:27;;;;;;;3.88;2.17;;;;;;;10.44;100.00;98264.22;5023779;28;20458;-73
2024/04/01 08:14:54;;;;;;;4.65;2.35;;;;;;;10.53;100.00;98257.38;5043378;28;20472;-73
2024/04/01 08:17:21;;;;;;;4.70;2.10;;;;;;;10.39;100.00;98239.94;5029035;28;20037;-73
2024/04/01 08:19:47;;;;;;;2.95;1.67;;;;;;;10.44;100.00;98260.75;5049078;28;20068;-72
2024/04/01 08:22:14;;;;;;;4.68;1.48;;;;;;;10.40;100.00;98268.06;5033041;28;20040;-71
2024/04/01 08:24:40;;;;;;;2.10;1.15;;;;;;;10.38;100.00;98271.84;5043456;28;20128;-73
2024/04/01 08:27:07;;;;;;;2.60;1.38;;;;;;;10.27;100.00;98253.31;5075588;28;20590;-72
2024/04/01 08:29:34;;;;;;;1.98;1.30;;;;;;;10.38;100.00;98282.41;5057105;28;20048;-72
2024/04/01 08:32:03;;;;;;;1.50;0.90;;;;;;;10.41;100.00;98282.16;5065049;28;20060;-72
2024/04/01 08:34:29;;;;;;;2.47;1.55;;;;;;;10.45;100.00;98291.53;5060821;28;20094;-72
2024/04/01 08:36:55;;;;;;;1.83;1.27;;;;;;;10.48;100.00;98307.16;5047932;28;20521;-73
2024/04/01 08:39:21;;;;;;;2.10;1.15;;;;;;;10.54;100.00;98306.69;5046735;28;20045;-72
2024/04/01 08:41:53;;;;;;;2.75;1.38;;;;;;;10.64;100.00;98312.91;5048365;28;20071;-72
2024/04/01 08:44:21;;;;;;;1.20;1.02;;;;;;;10.72;100.00;98301.69;5023972;28;20083;-72
2024/04/01 08:46:52;;;;;;;1.20;0.85;;;;;;;10.73;100.00;98316.63;5072899;28;20048;-72
2024/04/01 08:49:38;;;;;;;0.80;0.80;;;;;;;10.68;100.00;98314.38;5022296;28;20064;-72
2024/04/01 08:52:08;;;;;;;1.67;0.90;;;;;;;10.66;100.00;98311.00;5050746;28;20121;-73
2024/04/01 08:54:34;;;;;;;1.25;0.93;;;;;;;10.69;100.00;98305.47;5029184;28;20069;-72
2024/04/01 08:57:02;;;;;;;1.00;0.82;;;;;;;10.73;100.00;98317.47;5034738;28;20036;-71
2024/04/01 08:59:30;;;;;;;2.75;0.82;;;;;;;10.81;100.00;98325.63;5032487;28;20189;-72
2024/04/01 09:01:59;;;;;;;1.33;0.70;;;;;;;10.83;100.00;98323.72;5050156;28;20067;-70
2024/04/01 09:04:26;;;;;;;1.23;0.52;;;;;;;10.90;100.00;98324.88;5028045;28;20129;-72
2024/04/01 09:06:53;;;;;;;0.73;0.50;;;;;;;10.97;100.00;98330.53;5049352;28;20074;-72
2024/04/01 09:09:19;;;;;;;2.03;0.60;;;;;;;10.85;100.00;98327.09;5045864;28;20072;-72
2024/04/01 09:11:46;;;;;;;1.63;0.40;;;;;;;10.92;100.00;98367.13;5044232;28;20407;-71
2024/04/01 09:14:12;;;;;;;2.28;0.45;;;;;;;10.75;100.00;98357.06;5038324;28;20044;-71
2024/04/01 09:16:39;;;;;;;1.13;0.40;;;;;;;10.57;100.00;98353.22;5046546;28;20114;-71
2024/04/01 09:19:07;;;;;;;0.65;0.35;;;;;;;10.35;100.00;98347.00;5076667;28;20080;-72
2024/04/01 09:21:35;;;;;;;0.20;0.20;;;;;;;10.31;100.00;98356.13;5026698;28;20446;-71
2024/04/01 09:24:02;;;;;;;0.30;0.30;;;;;;;10.24;100.00;98340.84;5045266;28;20090;-70
2024/04/01 09:26:30;;;;;;;0.20;0.20;;;;;;;10.30;100.00;98358.88;5047514;28;21810;-70
2024/04/01 09:28:56;;;;;;;1.23;0.40;;;;;;;10.29;100.00;98371.25;5053117;28;20064;-71
2024/04/01 09:31:24;;;;;;;0.90;0.30;;;;;;;10.07;100.00;98345.59;5047496;28;20208;-71
2024/04/01 09:33:52;;;;;;;1.17;0.30;;;;;;;10.10;100.00;98355.94;5027776;28;20036;-72
2024/04/01 09:36:19;;;;;;;0.75;0.40;;;;;;;10.25;100.00;98367.16;5064506;28;20052;-71
2024/04/01 09:38:46;;;;;;;0.32;0.30;;;;;;;10.38;100.00;98372.38;5049002;28;20120;-71
2024/04/01 09:41:13;;;;;;;0.52;0.30;;;;;;;10.52;100.00;98382.72;5014392;28;20068;-70
2024/04/01 09:43:39;;;;;;;0.52;0.30;;;;;;;10.61;100.00;98376.69;5041773;28;20585;-70
2024/04/01 09:46:06;;;;;;;0.45;0.38;;;;;;;10.48;100.00;98387.41;5047364;28;20073;-71
2024/04/01 09:48:35;;;;;;;1.45;0.35;;;;;;;10.48;100.00;98389.19;5014120;28;20116;-71
2024/04/01 09:51:02;;;;;;;0.57;0.45;;;;;;;10.49;100.00;98382.94;5048220;28;20045;-71
2024/04/01 09:53:30;;;;;;;0.35;0.25;;;;;;;10.40;100.00;98383.66;5043184;28;20182;-71
2024/04/01 09:56:30;;;;;;;0.50;0.40;;;;;;;10.49;100.00;98391.72;5021593;28;20139;-71
2024/04/01 09:59:40;;;;;;;0.80;0.40;;;;;;;10.46;100.00;98397.25;5041182;28;20098;-72
2024/04/01 10:02:37;;;;;;;0.68;0.40;;;;;;;10.23;100.00;98387.59;4970171;28;20481;-71
2024/04/01 10:05:34;;;;;;;1.20;0.52;;;;;;;10.32;100.00;98412.50;4966553;28;20141;-71
2024/04/01 10:08:40;;;;;;;2.45;0.30;;;;;;;10.53;100.00;98427.59;5022626;28;20424;-71
2024/04/01 10:11:30;;;;;;;1.85;0.40;;;;;;;10.61;100.00;98442.84;5023845;28;20068;-70
2024/04/01 10:14:24;;;;;;;1.08;0.50;;;;;;;10.61;100.00;98450.78;5027618;28;20080;-70
2024/04/01 10:17:21;;;;;;;1.65;0.50;;;;;;;10.48;100.00;98439.47;5026682;28;20478;-70
2024/04/01 10:20:19;;;;;;;1.60;0.50;;;;;;;10.67;100.00;98447.69;5035612;28;20060;-71
2024/04/01 10:23:22;;;;;;;0.60;0.60;;;;;;;10.76;100.00;98446.94;5035602;28;20510;-71
2024/04/01 10:26:21;;;;;;;1.00;0.50;;;;;;;10.62;100.00;98446.34;5057336;28;20033;-72
2024/04/01 10:29:18;;;;;;;1.77;0.80;;;;;;;10.56;100.00;98458.22;5030871;28;20533;-70
2024/04/01 10:32:18;;;;;;;3.25;2.20;;;;;;;10.54;100.00;98465.47;5040241;28;20091;-71
2024/04/01 10:35:09;;;;;;;2.13;0.90;;;;;;;10.13;100.00;98402.47;5027851;28;20068;-71
2024/04/01 10:38:07;;;;;;;0.50;0.47;;;;;;;10.64;100.00;98474.38;5030754;28;20616;-72
2024/04/01 10:40:57;;;;;;;0.73;0.40;;;;;;;10.76;100.00;98476.06;5047223;28;20067;-72
2024/04/01 10:44:00;;;;;;;0.45;0.45;;;;;;;10.70;100.00;98481.84;5055576;28;20071;-71
2024/04/01 10:46:45;;;;;;;0.50;0.43;;;;;;;10.71;100.00;98486.16;5028450;28;20065;-71
2024/04/01 10:49:41;;;;;;;0.70;0.50;;;;;;;10.44;100.00;98461.84;5047703;28;20541;-72
2024/04/01 10:52:33;;;;;;;0.82;0.50;;;;;;;10.65;100.00;98507.81;5045078;28;20506;-72
2024/04/01 10:55:25;;;;;;;0.60;0.60;;;;;;;10.71;100.00;98519.72;5059900;28;20044;-73
2024/04/01 10:58:15;;;;;;;1.83;0.50;;;;;;;10.54;100.00;98519.25;5047131;28;20072;-73
2024/04/01 11:01:12;;;;;;;0.55;0.40;;;;;;;10.38;100.00;98531.13;5035981;28;20041;-73
2024/04/01 11:04:17;;;;;;;0.80;0.60;;;;;;;10.48;100.00;98529.44;5044460;28;20037;-71
2024/04/01 11:06:58;;;;;;;0.82;0.47;;;;;;;10.64;100.00;98522.03;5063545;28;20068;-71
2024/04/01 11:09:45;;;;;;;1.63;0.47;;;;;;;10.42;100.00;98471.69;5033372;28;20082;-71
2024/04/01 11:12:33;;;;;;;0.60;0.52;;;;;;;10.85;100.00;98538.91;5043409;28;20044;-73
2024/04/01 11:15:03;;;;;;;0.77;0.50;;;;;;;11.02;100.00;98544.69;5043988;28;20520;-73
2024/04/01 11:17:36;;;;;;;0.70;0.70;;;;;;;11.12;100.00;98550.94;5046754;28;20132;-73
2024/04/01 11:20:26;;;;;;;1.45;0.50;;;;;;;11.14;100.00;98543.72;5047784;28;20491;-72
2024/04/01 11:23:08;;;;;;;1.00;0.70;;;;;;;10.96;100.00;98508.09;5051235;28;20182;-73
2024/04/01 11:25:44;;;;;;;0.93;0.70;;;;;;;11.32;100.00;98544.94;5029059;28;20083;-73
2024/04/01 11:28:30;;;;;;;0.85;0.75;;;;;;;11.14;100.00;98543.72;5043875;28;20554;-72
2024/04/01 11:31:04;;;;;;;3.25;0.82;;;;;;;11.05;100.00;98537.34;5049644;28;20068;-72
2024/04/01 11:33:40;;;;;;;1.58;0.77;;;;;;;11.13;100.00;98542.03;5049021;28;20051;-72
2024/04/01 11:36:11;;;;;;;3.58;1.20;;;;;;;11.17;100.00;98546.16;5040029;28;20076;-72
2024/04/01 11:38:45;;;;;;;1.20;1.10;;;;;;;11.15;100.00;98540.97;5049100;28;20076;-73
2024/04/01 11:41:17;;;;;;;4.47;1.38;;;;;;;11.06;100.00;98554.91;5049573;28;20063;-72